createdAt,value
2018-10-06T00:00:34.611Z,0.00
2018-10-06T00:01:34.604Z,0.00
2018-10-06T00:02:34.594Z,0.00
2018-10-06T00:03:34.587Z,0.00
2018-10-06T00:04:34.578Z,0.00
2018-10-06T00:05:34.571Z,0.00
2018-10-06T00:06:34.565Z,0.00
2018-10-06T00:07:34.556Z,0.00
2018-10-06T00:08:34.547Z,0.00
2018-10-06T00:09:34.539Z,0.00
2018-10-06T00:10:34.530Z,0.00
2018-10-06T00:11:34.522Z,0.00
2018-10-06T00:12:34.517Z,0.00
2018-10-06T00:13:34.506Z,0.00
2018-10-06T00:14:34.497Z,0.00
2018-10-06T00:15:34.488Z,0.00
2018-10-06T00:16:34.481Z,0.00
2018-10-06T00:17:34.473Z,0.00
2018-10-06T00:18:34.466Z,0.00
2018-10-06T00:19:34.456Z,0.00
2018-10-06T00:20:34.448Z,0.00
2018-10-06T00:21:34.443Z,0.00
2018-10-06T00:22:34.432Z,0.00
2018-10-06T00:23:34.424Z,0.00
2018-10-06T00:24:34.416Z,0.00
2018-10-06T00:25:34.407Z,0.00
2018-10-06T00:26:34.400Z,0.00
2018-10-06T00:27:34.392Z,0.00
2018-10-06T00:28:34.386Z,0.00
2018-10-06T00:29:34.376Z,0.00
2018-10-06T00:30:34.370Z,0.00
2018-10-06T00:31:34.363Z,0.00
2018-10-06T00:32:34.353Z,0.00
2018-10-06T00:33:34.344Z,0.00
2018-10-06T00:34:34.585Z,0.00
2018-10-06T00:35:34.326Z,0.00
2018-10-06T00:36:34.322Z,0.00
2018-10-06T00:37:34.312Z,0.00
2018-10-06T00:38:34.302Z,0.00
2018-10-06T00:39:34.293Z,0.00
2018-10-06T00:40:34.290Z,0.00
2018-10-06T00:41:34.277Z,0.00
2018-10-06T00:42:34.270Z,0.00
2018-10-06T00:43:34.260Z,0.00
2018-10-06T00:44:34.253Z,0.00
2018-10-06T00:45:34.245Z,0.00
2018-10-06T00:46:34.236Z,0.00
2018-10-06T00:47:34.229Z,0.00
2018-10-06T00:48:34.221Z,0.00
2018-10-06T00:49:34.215Z,0.00
2018-10-06T00:50:34.204Z,0.00
2018-10-06T00:51:34.196Z,0.00
2018-10-06T00:52:34.190Z,0.00
2018-10-06T00:53:34.180Z,0.00
2018-10-06T00:54:34.172Z,0.00
2018-10-06T00:55:34.164Z,0.00
2018-10-06T00:56:34.159Z,0.00
2018-10-06T00:57:34.154Z,0.00
2018-10-06T00:58:34.139Z,0.00
2018-10-06T00:59:34.130Z,0.00
2018-10-06T01:00:34.128Z,0.00
2018-10-06T01:01:34.115Z,0.00
2018-10-06T01:02:34.106Z,0.00
2018-10-06T01:03:34.097Z,0.00
2018-10-06T01:04:34.091Z,0.00
2018-10-06T01:05:34.082Z,0.00
2018-10-06T01:06:34.073Z,0.00
2018-10-06T01:07:34.065Z,0.00
2018-10-06T01:08:34.057Z,0.00
2018-10-06T01:09:34.059Z,0.00
2018-10-06T01:10:34.040Z,0.00
2018-10-06T01:11:34.032Z,0.00
2018-10-06T01:12:34.024Z,0.00
2018-10-06T01:13:34.016Z,0.00
2018-10-06T01:14:34.007Z,0.00
2018-10-06T01:15:33.999Z,0.00
2018-10-06T01:16:33.991Z,0.00
2018-10-06T01:17:33.983Z,0.00
2018-10-06T01:18:33.974Z,0.00
2018-10-06T01:19:33.966Z,0.00
2018-10-06T01:20:33.958Z,0.00
2018-10-06T01:21:33.953Z,0.00
2018-10-06T01:22:33.945Z,0.00
2018-10-06T01:23:33.933Z,0.00
2018-10-06T01:24:33.925Z,0.00
2018-10-06T01:25:34.168Z,0.00
2018-10-06T01:26:33.909Z,0.00
2018-10-06T01:27:33.901Z,0.00
2018-10-06T01:28:33.893Z,0.00
2018-10-06T01:29:33.885Z,0.00
2018-10-06T01:30:33.876Z,0.00
2018-10-06T01:31:33.874Z,0.00
2018-10-06T01:32:33.860Z,0.00
2018-10-06T01:33:33.852Z,0.00
2018-10-06T01:34:33.843Z,0.00
2018-10-06T01:35:33.835Z,0.00
2018-10-06T01:36:33.828Z,0.00
2018-10-06T01:37:33.819Z,0.00
2018-10-06T01:38:33.810Z,0.00
2018-10-06T01:39:33.801Z,0.00
2018-10-06T01:40:33.794Z,0.00
2018-10-06T01:41:33.791Z,0.00
2018-10-06T01:42:33.778Z,0.00
2018-10-06T01:43:33.770Z,0.00
2018-10-06T01:44:33.761Z,0.00
2018-10-06T01:45:33.755Z,0.00
2018-10-06T01:46:33.796Z,0.00
2018-10-06T01:47:33.738Z,0.00
2018-10-06T01:48:33.730Z,0.00
2018-10-06T01:49:33.722Z,0.00
2018-10-06T01:50:33.713Z,0.00
2018-10-06T01:51:33.705Z,0.00
2018-10-06T01:52:33.697Z,0.00
2018-10-06T01:53:33.690Z,0.00
2018-10-06T01:54:33.680Z,0.00
2018-10-06T01:55:33.672Z,0.00
2018-10-06T01:56:33.664Z,0.00
2018-10-06T01:57:33.657Z,0.00
2018-10-06T01:58:33.647Z,0.00
2018-10-06T01:59:33.639Z,0.00
2018-10-06T02:00:33.631Z,0.00
2018-10-06T02:01:33.627Z,0.00
2018-10-06T02:02:33.614Z,0.00
2018-10-06T02:03:33.607Z,0.00
2018-10-06T02:04:33.599Z,0.00
2018-10-06T02:05:33.591Z,0.00
2018-10-06T02:06:33.582Z,0.00
2018-10-06T02:07:33.572Z,0.00
2018-10-06T02:08:33.565Z,0.00
2018-10-06T02:09:33.557Z,0.00
2018-10-06T02:10:33.548Z,0.00
2018-10-06T02:11:33.541Z,0.00
2018-10-06T02:12:33.533Z,0.00
2018-10-06T02:13:33.524Z,0.00
2018-10-06T02:14:33.517Z,0.00
2018-10-06T02:15:33.508Z,0.00
2018-10-06T02:16:33.499Z,0.00
2018-10-06T02:17:33.492Z,0.00
2018-10-06T02:18:33.486Z,0.00
2018-10-06T02:19:33.475Z,0.00
2018-10-06T02:20:33.466Z,0.00
2018-10-06T02:21:33.458Z,0.00
2018-10-06T02:22:33.449Z,0.00
2018-10-06T02:23:33.443Z,0.00
2018-10-06T02:24:33.434Z,0.00
2018-10-06T02:25:33.425Z,0.00
2018-10-06T02:26:33.416Z,0.00
2018-10-06T02:27:33.409Z,0.00
2018-10-06T02:28:33.401Z,0.00
2018-10-06T02:29:33.396Z,0.00
2018-10-06T02:30:33.385Z,0.00
2018-10-06T02:31:33.377Z,0.00
2018-10-06T02:32:33.369Z,0.00
2018-10-06T02:33:33.361Z,0.00
2018-10-06T02:34:33.355Z,0.00
2018-10-06T02:35:33.344Z,0.00
2018-10-06T02:36:33.336Z,0.00
2018-10-06T02:37:33.329Z,0.00
2018-10-06T02:38:33.324Z,0.00
2018-10-06T02:39:33.313Z,0.00
2018-10-06T02:40:33.305Z,0.00
2018-10-06T02:41:33.296Z,0.00
2018-10-06T02:42:33.287Z,0.00
2018-10-06T02:43:33.279Z,0.00
2018-10-06T02:44:33.271Z,0.00
2018-10-06T02:45:33.263Z,0.00
2018-10-06T02:46:33.254Z,0.00
2018-10-06T02:47:33.246Z,0.00
2018-10-06T02:48:33.238Z,0.00
2018-10-06T02:49:33.230Z,0.00
2018-10-06T02:50:33.222Z,0.00
2018-10-06T02:51:33.216Z,0.00
2018-10-06T02:52:33.204Z,0.00
2018-10-06T02:53:33.197Z,0.00
2018-10-06T02:54:33.189Z,0.00
2018-10-06T02:55:33.183Z,0.00
2018-10-06T02:56:33.172Z,0.00
2018-10-06T02:57:33.165Z,0.00
2018-10-06T02:58:33.155Z,0.00
2018-10-06T02:59:33.148Z,0.00
2018-10-06T03:00:33.139Z,0.00
2018-10-06T03:01:33.130Z,0.00
2018-10-06T03:02:33.122Z,0.00
2018-10-06T03:03:33.113Z,0.00
2018-10-06T03:04:33.105Z,0.00
2018-10-06T03:05:33.098Z,0.00
2018-10-06T03:06:33.088Z,0.00
2018-10-06T03:07:33.080Z,0.00
2018-10-06T03:08:33.072Z,0.00
2018-10-06T03:09:33.064Z,0.00
2018-10-06T03:10:33.055Z,0.00
2018-10-06T03:11:33.046Z,0.00
2018-10-06T03:12:33.042Z,0.00
2018-10-06T03:13:33.031Z,0.00
2018-10-06T03:14:33.023Z,0.00
2018-10-06T03:15:33.017Z,0.00
2018-10-06T03:16:33.006Z,0.00
2018-10-06T03:17:33.002Z,0.00
2018-10-06T03:18:32.992Z,0.00
2018-10-06T03:19:32.981Z,0.00
2018-10-06T03:20:32.973Z,0.00
2018-10-06T03:21:32.965Z,0.00
2018-10-06T03:22:32.956Z,0.00
2018-10-06T03:23:32.948Z,0.00
2018-10-06T03:24:32.941Z,0.00
2018-10-06T03:25:32.932Z,0.00
2018-10-06T03:26:32.923Z,0.00
2018-10-06T03:27:32.916Z,0.00
2018-10-06T03:28:32.910Z,0.00
2018-10-06T03:29:32.899Z,0.00
2018-10-06T03:30:32.891Z,0.00
2018-10-06T03:31:32.890Z,0.00
2018-10-06T03:32:32.897Z,0.00
2018-10-06T03:33:32.866Z,0.00
2018-10-06T03:34:32.856Z,0.00
2018-10-06T03:35:32.848Z,0.00
2018-10-06T03:36:32.842Z,0.00
2018-10-06T03:37:32.832Z,0.00
2018-10-06T03:38:32.834Z,0.00
2018-10-06T03:39:32.816Z,0.00
2018-10-06T03:40:32.811Z,0.00
2018-10-06T03:41:32.801Z,0.00
2018-10-06T03:42:32.792Z,0.00
2018-10-06T03:43:32.783Z,0.00
2018-10-06T03:44:32.775Z,0.00
2018-10-06T03:45:32.773Z,0.00
2018-10-06T03:46:32.762Z,0.00
2018-10-06T03:47:32.751Z,0.00
2018-10-06T03:48:32.743Z,0.00
2018-10-06T03:49:32.741Z,0.00
2018-10-06T03:50:32.727Z,0.00
2018-10-06T03:51:32.723Z,0.00
2018-10-06T03:52:32.714Z,0.00
2018-10-06T03:53:32.701Z,0.00
2018-10-06T03:54:32.692Z,0.00
2018-10-06T03:55:32.688Z,0.00
2018-10-06T03:56:32.680Z,0.00
2018-10-06T03:57:32.669Z,0.00
2018-10-06T03:58:32.666Z,0.00
2018-10-06T03:59:32.654Z,0.00
2018-10-06T04:00:32.644Z,0.00
2018-10-06T04:01:32.636Z,0.00
2018-10-06T04:02:32.628Z,0.00
2018-10-06T04:03:32.620Z,0.00
2018-10-06T04:04:32.612Z,0.00
2018-10-06T04:05:32.605Z,0.00
2018-10-06T04:06:32.595Z,0.00
2018-10-06T04:07:32.589Z,0.00
2018-10-06T04:08:32.583Z,0.00
2018-10-06T04:09:32.572Z,0.00
2018-10-06T04:10:32.564Z,0.00
2018-10-06T04:11:32.556Z,0.00
2018-10-06T04:12:32.653Z,0.00
2018-10-06T04:13:32.540Z,0.00
2018-10-06T04:14:32.533Z,0.00
2018-10-06T04:15:32.527Z,0.00
2018-10-06T04:16:32.515Z,0.00
2018-10-06T04:17:32.510Z,0.00
2018-10-06T04:18:32.499Z,0.00
2018-10-06T04:19:32.490Z,0.00
2018-10-06T04:20:32.481Z,0.00
2018-10-06T04:21:32.475Z,0.00
2018-10-06T04:22:32.466Z,0.00
2018-10-06T04:23:32.459Z,0.00
2018-10-06T04:24:32.453Z,0.00
2018-10-06T04:25:32.443Z,0.00
2018-10-06T04:26:32.433Z,0.00
2018-10-06T04:27:32.627Z,0.00
2018-10-06T04:28:32.523Z,0.00
2018-10-06T04:29:32.410Z,0.00
2018-10-06T04:30:32.401Z,0.00
2018-10-06T04:31:32.397Z,0.00
2018-10-06T04:32:32.384Z,0.00
2018-10-06T04:33:32.376Z,0.00
2018-10-06T04:34:32.369Z,0.00
2018-10-06T04:35:32.360Z,0.00
2018-10-06T04:36:32.351Z,0.00
2018-10-06T04:37:32.347Z,0.00
2018-10-06T04:38:32.334Z,0.00
2018-10-06T04:39:32.327Z,0.00
2018-10-06T04:40:32.319Z,0.00
2018-10-06T04:41:32.310Z,0.00
2018-10-06T04:42:32.302Z,0.00
2018-10-06T04:43:32.297Z,0.00
2018-10-06T04:44:32.285Z,0.00
2018-10-06T04:45:32.277Z,0.00
2018-10-06T04:46:32.268Z,0.00
2018-10-06T04:47:32.260Z,0.00
2018-10-06T04:48:32.252Z,0.00
2018-10-06T04:49:32.244Z,0.00
2018-10-06T04:50:32.241Z,0.00
2018-10-06T04:51:32.231Z,0.00
2018-10-06T04:52:32.226Z,0.00
2018-10-06T04:53:32.211Z,0.00
2018-10-06T04:54:32.203Z,0.00
2018-10-06T04:55:32.193Z,0.00
2018-10-06T04:56:32.185Z,0.00
2018-10-06T04:57:32.176Z,0.00
2018-10-06T04:58:32.167Z,0.00
2018-10-06T04:59:32.159Z,0.00
2018-10-06T05:00:32.151Z,0.00
2018-10-06T05:01:32.142Z,0.00
2018-10-06T05:02:32.133Z,0.00
2018-10-06T05:03:32.245Z,0.00
2018-10-06T05:04:32.116Z,0.00
2018-10-06T05:05:32.108Z,0.00
2018-10-06T05:06:32.099Z,0.00
2018-10-06T05:07:32.098Z,0.00
2018-10-06T05:08:32.082Z,0.00
2018-10-06T05:09:32.074Z,0.00
2018-10-06T05:10:32.065Z,0.00
2018-10-06T05:11:32.056Z,0.00
2018-10-06T05:12:32.049Z,0.00
2018-10-06T05:13:32.039Z,0.00
2018-10-06T05:14:32.030Z,0.00
2018-10-06T05:15:32.022Z,0.00
2018-10-06T05:16:32.021Z,0.00
2018-10-06T05:17:32.007Z,0.00
2018-10-06T05:18:31.995Z,0.00
2018-10-06T05:19:31.987Z,0.00
2018-10-06T05:20:31.979Z,0.00
2018-10-06T05:21:31.971Z,0.00
2018-10-06T05:22:31.962Z,0.00
2018-10-06T05:23:31.997Z,0.00
2018-10-06T05:24:31.944Z,0.00
2018-10-06T05:25:31.935Z,0.00
2018-10-06T05:26:31.927Z,0.00
2018-10-06T05:27:31.918Z,0.00
2018-10-06T05:28:31.910Z,0.00
2018-10-06T05:29:31.902Z,0.00
2018-10-06T05:30:32.094Z,0.00
2018-10-06T05:31:31.884Z,0.00
2018-10-06T05:32:31.875Z,0.00
2018-10-06T05:33:32.070Z,0.00
2018-10-06T05:34:31.858Z,0.00
2018-10-06T05:35:31.850Z,0.00
2018-10-06T05:36:31.843Z,0.00
2018-10-06T05:37:31.834Z,5.63
2018-10-06T05:38:31.823Z,5.63
2018-10-06T05:39:31.816Z,5.63
2018-10-06T05:40:31.812Z,5.63
2018-10-06T05:41:31.799Z,5.63
2018-10-06T05:42:31.792Z,5.63
2018-10-06T05:43:31.783Z,5.63
2018-10-06T05:44:31.777Z,11.25
2018-10-06T05:45:31.765Z,11.25
2018-10-06T05:46:31.841Z,11.25
2018-10-06T05:47:31.746Z,11.25
2018-10-06T05:48:31.738Z,16.88
2018-10-06T05:49:31.728Z,16.88
2018-10-06T05:50:31.720Z,16.88
2018-10-06T05:51:31.919Z,16.88
2018-10-06T05:52:31.707Z,22.50
2018-10-06T05:53:31.695Z,22.50
2018-10-06T05:54:31.686Z,22.50
2018-10-06T05:55:31.677Z,22.50
2018-10-06T05:56:31.671Z,28.13
2018-10-06T05:57:31.663Z,28.13
2018-10-06T05:58:31.657Z,28.13
2018-10-06T05:59:31.646Z,28.13
2018-10-06T06:00:31.635Z,33.75
2018-10-06T06:01:31.626Z,33.75
2018-10-06T06:02:31.616Z,39.38
2018-10-06T06:03:31.615Z,39.38
2018-10-06T06:04:31.604Z,39.38
2018-10-06T06:05:31.592Z,45.00
2018-10-06T06:06:31.585Z,45.00
2018-10-06T06:07:31.575Z,50.63
2018-10-06T06:08:31.566Z,50.63
2018-10-06T06:09:31.560Z,50.63
2018-10-06T06:10:31.552Z,50.63
2018-10-06T06:11:31.541Z,56.25
2018-10-06T06:12:31.537Z,56.25
2018-10-06T06:13:31.726Z,56.25
2018-10-06T06:14:31.516Z,61.88
2018-10-06T06:15:31.566Z,67.50
2018-10-06T06:16:31.500Z,67.50
2018-10-06T06:17:31.494Z,67.50
2018-10-06T06:18:31.482Z,73.13
2018-10-06T06:19:31.474Z,73.13
2018-10-06T06:20:31.466Z,73.13
2018-10-06T06:21:31.465Z,78.75
2018-10-06T06:22:31.449Z,78.75
2018-10-06T06:23:31.444Z,78.75
2018-10-06T06:24:31.440Z,84.38
2018-10-06T06:25:31.425Z,84.38
2018-10-06T06:26:31.421Z,84.38
2018-10-06T06:27:31.408Z,90.00
2018-10-06T06:28:31.401Z,90.00
2018-10-06T06:29:31.392Z,90.00
2018-10-06T06:30:31.384Z,95.63
2018-10-06T06:31:31.524Z,95.63
2018-10-06T06:32:31.373Z,101.25
2018-10-06T06:33:31.361Z,101.25
2018-10-06T06:34:31.352Z,101.25
2018-10-06T06:35:31.350Z,106.88
2018-10-06T06:36:31.338Z,106.88
2018-10-06T06:37:31.530Z,112.50
2018-10-06T06:38:31.358Z,112.50
2018-10-06T06:39:31.316Z,112.50
2018-10-06T06:40:31.305Z,118.13
2018-10-06T06:41:31.301Z,118.13
2018-10-06T06:42:31.291Z,123.75
2018-10-06T06:43:31.316Z,123.75
2018-10-06T06:44:31.408Z,129.38
2018-10-06T06:45:31.270Z,129.38
2018-10-06T06:46:31.258Z,135.00
2018-10-06T06:47:31.250Z,140.63
2018-10-06T06:48:31.243Z,140.63
2018-10-06T06:49:31.235Z,146.25
2018-10-06T06:50:31.227Z,146.25
2018-10-06T06:51:31.219Z,151.88
2018-10-06T06:52:31.211Z,151.88
2018-10-06T06:53:31.205Z,151.88
2018-10-06T06:54:31.196Z,157.50
2018-10-06T06:55:31.190Z,157.50
2018-10-06T06:56:31.184Z,163.13
2018-10-06T06:57:31.175Z,163.13
2018-10-06T06:58:31.167Z,163.13
2018-10-06T06:59:31.163Z,168.75
2018-10-06T07:00:31.163Z,168.75
2018-10-06T07:01:31.146Z,168.75
2018-10-06T07:02:31.141Z,174.38
2018-10-06T07:03:31.181Z,174.38
2018-10-06T07:04:31.124Z,174.38
2018-10-06T07:05:31.144Z,180.00
2018-10-06T07:06:31.109Z,180.00
2018-10-06T07:07:31.101Z,185.63
2018-10-06T07:08:31.096Z,185.63
2018-10-06T07:09:31.091Z,185.63
2018-10-06T07:10:31.081Z,191.25
2018-10-06T07:11:31.074Z,191.25
2018-10-06T07:12:31.315Z,196.88
2018-10-06T07:13:31.064Z,191.25
2018-10-06T07:14:31.154Z,191.25
2018-10-06T07:15:31.047Z,196.88
2018-10-06T07:16:31.243Z,196.88
2018-10-06T07:17:31.037Z,202.50
2018-10-06T07:18:31.053Z,202.50
2018-10-06T07:19:31.020Z,202.50
2018-10-06T07:20:31.014Z,208.13
2018-10-06T07:21:31.009Z,213.75
2018-10-06T07:22:31.000Z,213.75
2018-10-06T07:23:30.994Z,219.38
2018-10-06T07:24:30.994Z,219.38
2018-10-06T07:25:30.989Z,230.63
2018-10-06T07:26:30.975Z,241.88
2018-10-06T07:27:30.969Z,236.25
2018-10-06T07:28:30.970Z,236.25
2018-10-06T07:29:30.956Z,236.25
2018-10-06T07:30:30.949Z,253.13
2018-10-06T07:31:31.145Z,281.25
2018-10-06T07:32:30.941Z,337.50
2018-10-06T07:33:30.933Z,388.13
2018-10-06T07:34:30.930Z,433.13
2018-10-06T07:35:30.923Z,444.38
2018-10-06T07:36:30.918Z,450.00
2018-10-06T07:37:30.914Z,450.00
2018-10-06T07:38:30.911Z,455.63
2018-10-06T07:39:30.906Z,444.38
2018-10-06T07:40:30.954Z,433.13
2018-10-06T07:41:30.901Z,438.75
2018-10-06T07:42:30.900Z,455.63
2018-10-06T07:43:30.901Z,478.13
2018-10-06T07:44:30.896Z,489.38
2018-10-06T07:45:30.896Z,511.88
2018-10-06T07:46:30.895Z,630.00
2018-10-06T07:47:30.898Z,821.25
2018-10-06T07:48:30.897Z,911.25
2018-10-06T07:49:30.893Z,939.38
2018-10-06T07:50:30.891Z,967.50
2018-10-06T07:51:30.891Z,967.50
2018-10-06T07:52:30.895Z,978.75
2018-10-06T07:53:30.894Z,1001.25
2018-10-06T07:54:30.897Z,1023.75
2018-10-06T07:55:30.897Z,1051.88
2018-10-06T07:56:30.902Z,1046.25
2018-10-06T07:57:30.904Z,1068.75
2018-10-06T07:58:30.905Z,1051.88
2018-10-06T07:59:30.908Z,1046.25
2018-10-06T08:00:30.913Z,1085.63
2018-10-06T08:01:30.962Z,1158.75
2018-10-06T08:02:30.917Z,1141.88
2018-10-06T08:03:30.919Z,1164.38
2018-10-06T08:04:30.923Z,1181.25
2018-10-06T08:05:30.929Z,1175.63
2018-10-06T08:06:31.017Z,1231.88
2018-10-06T08:07:30.935Z,1248.75
2018-10-06T08:08:30.940Z,1243.13
2018-10-06T08:09:30.952Z,1260.00
2018-10-06T08:10:31.049Z,1271.25
2018-10-06T08:11:30.954Z,1260.00
2018-10-06T08:12:30.960Z,1248.75
2018-10-06T08:13:30.965Z,1271.25
2018-10-06T08:14:31.172Z,1293.75
2018-10-06T08:15:30.976Z,1321.88
2018-10-06T08:16:30.982Z,1327.50
2018-10-06T08:17:30.988Z,1333.13
2018-10-06T08:18:30.993Z,1389.38
2018-10-06T08:19:30.999Z,1395.00
2018-10-06T08:20:31.012Z,1361.25
2018-10-06T08:21:31.012Z,1366.88
2018-10-06T08:22:31.021Z,1411.88
2018-10-06T08:23:31.025Z,1395.00
2018-10-06T08:24:31.030Z,1344.38
2018-10-06T08:25:31.038Z,1395.00
2018-10-06T08:26:31.045Z,1378.13
2018-10-06T08:27:31.257Z,1383.75
2018-10-06T08:28:31.056Z,1406.25
2018-10-06T08:29:31.062Z,1389.38
2018-10-06T08:30:31.066Z,1383.75
2018-10-06T08:31:31.072Z,1440.00
2018-10-06T08:32:31.080Z,1445.63
2018-10-06T08:33:31.089Z,1445.63
2018-10-06T08:34:31.092Z,1456.88
2018-10-06T08:35:31.096Z,1451.25
2018-10-06T08:36:31.103Z,1434.38
2018-10-06T08:37:31.114Z,1456.88
2018-10-06T08:38:31.116Z,1440.00
2018-10-06T08:39:31.125Z,1473.75
2018-10-06T08:40:31.129Z,1530.00
2018-10-06T08:41:31.139Z,1496.25
2018-10-06T08:42:31.163Z,1501.88
2018-10-06T08:43:31.148Z,1496.25
2018-10-06T08:44:31.156Z,1473.75
2018-10-06T08:45:31.170Z,1501.88
2018-10-06T08:46:31.170Z,1535.63
2018-10-06T08:47:31.178Z,1569.38
2018-10-06T08:48:31.187Z,1513.13
2018-10-06T08:49:31.198Z,1468.13
2018-10-06T08:50:31.198Z,1389.38
2018-10-06T08:51:31.261Z,1473.75
2018-10-06T08:52:31.214Z,1636.88
2018-10-06T08:53:31.225Z,1620.00
2018-10-06T08:54:31.230Z,1580.63
2018-10-06T08:55:31.243Z,1552.50
2018-10-06T08:56:31.302Z,1586.25
2018-10-06T08:57:31.249Z,1676.25
2018-10-06T08:58:31.261Z,1631.25
2018-10-06T08:59:31.262Z,1625.63
2018-10-06T09:00:31.275Z,1670.63
2018-10-06T09:01:31.278Z,1659.38
2018-10-06T09:02:31.284Z,1659.38
2018-10-06T09:03:31.291Z,1698.75
2018-10-06T09:04:31.302Z,1676.25
2018-10-06T09:05:31.308Z,1625.63
2018-10-06T09:07:31.323Z,1676.25
2018-10-06T09:08:31.336Z,1693.13
2018-10-06T09:09:31.336Z,1738.13
2018-10-06T09:10:31.345Z,1783.13
2018-10-06T09:11:31.354Z,1569.38
2018-10-06T09:12:31.362Z,1670.63
2018-10-06T09:13:31.370Z,1687.50
2018-10-06T09:14:31.381Z,1603.13
2018-10-06T09:15:31.384Z,1698.75
2018-10-06T09:16:31.392Z,1670.63
2018-10-06T09:17:31.399Z,1760.63
2018-10-06T09:18:31.411Z,1766.25
2018-10-06T09:19:31.419Z,1777.50
2018-10-06T09:20:31.432Z,1749.38
2018-10-06T09:21:31.432Z,1749.38
2018-10-06T09:22:31.438Z,1755.00
2018-10-06T09:23:31.448Z,1749.38
2018-10-06T09:24:31.456Z,1777.50
2018-10-06T09:25:31.469Z,1490.63
2018-10-06T09:26:31.477Z,1777.50
2018-10-06T09:27:31.487Z,1704.38
2018-10-06T09:28:31.491Z,1704.38
2018-10-06T09:29:31.500Z,1755.00
2018-10-06T09:30:31.518Z,1777.50
2018-10-06T09:31:31.517Z,1771.88
2018-10-06T09:32:31.731Z,1771.88
2018-10-06T09:33:31.541Z,1800.00
2018-10-06T09:34:31.542Z,1777.50
2018-10-06T09:35:31.551Z,1738.13
2018-10-06T09:36:31.560Z,1777.50
2018-10-06T09:37:31.569Z,1805.63
2018-10-06T09:38:31.577Z,1800.00
2018-10-06T09:39:31.585Z,1749.38
2018-10-06T09:40:31.595Z,1755.00
2018-10-06T09:41:31.606Z,1822.50
2018-10-06T09:42:31.733Z,1805.63
2018-10-06T09:43:31.829Z,1794.38
2018-10-06T09:44:31.632Z,1811.25
2018-10-06T09:45:31.639Z,1766.25
2018-10-06T09:46:31.648Z,1805.63
2018-10-06T09:47:31.656Z,1749.38
2018-10-06T09:48:31.670Z,1749.38
2018-10-06T09:49:31.876Z,1563.75
2018-10-06T09:50:31.683Z,1856.25
2018-10-06T09:51:31.692Z,1822.50
2018-10-06T09:52:31.705Z,1822.50
2018-10-06T09:53:31.753Z,1816.88
2018-10-06T09:54:31.725Z,1839.38
2018-10-06T09:55:31.728Z,1749.38
2018-10-06T09:56:31.741Z,1760.63
2018-10-06T09:57:31.746Z,1681.88
2018-10-06T09:58:31.756Z,1777.50
2018-10-06T09:59:31.927Z,1878.75
2018-10-06T10:00:31.774Z,1833.75
2018-10-06T10:01:31.784Z,1738.13
2018-10-06T10:02:31.795Z,1771.88
2018-10-06T10:03:31.802Z,1822.50
2018-10-06T10:04:31.814Z,1800.00
2018-10-06T10:05:31.904Z,1845.00
2018-10-06T10:06:31.829Z,1738.13
2018-10-06T10:07:31.839Z,1726.88
2018-10-06T10:08:31.848Z,1850.63
2018-10-06T10:09:31.857Z,1861.88
2018-10-06T10:10:31.870Z,1884.38
2018-10-06T10:11:31.877Z,1653.75
2018-10-06T10:12:31.906Z,1873.13
2018-10-06T10:13:31.893Z,1800.00
2018-10-06T10:14:31.946Z,1805.63
2018-10-06T10:15:32.059Z,1766.25
2018-10-06T10:16:31.920Z,1777.50
2018-10-06T10:17:31.954Z,1822.50
2018-10-06T10:18:32.065Z,1845.00
2018-10-06T10:19:31.946Z,1794.38
2018-10-06T10:20:31.957Z,1833.75
2018-10-06T10:21:31.966Z,1856.25
2018-10-06T10:22:32.072Z,1918.13
2018-10-06T10:23:32.023Z,1968.75
2018-10-06T10:24:31.996Z,1957.50
2018-10-06T10:25:32.008Z,1625.63
2018-10-06T10:26:32.219Z,1760.63
2018-10-06T10:27:32.027Z,1895.63
2018-10-06T10:28:32.144Z,1940.63
2018-10-06T10:29:32.050Z,1940.63
2018-10-06T10:30:32.058Z,1963.13
2018-10-06T10:31:32.072Z,1974.38
2018-10-06T10:32:32.081Z,1974.38
2018-10-06T10:33:32.104Z,1985.63
2018-10-06T10:34:32.156Z,1918.13
2018-10-06T10:35:32.111Z,1951.88
2018-10-06T10:36:32.125Z,1923.75
2018-10-06T10:37:32.351Z,1873.13
2018-10-06T10:38:32.141Z,1912.50
2018-10-06T10:39:32.297Z,1980.00
2018-10-06T10:40:32.161Z,1710.00
2018-10-06T10:41:32.171Z,1310.63
2018-10-06T10:42:32.184Z,1906.88
2018-10-06T10:43:32.190Z,1850.63
2018-10-06T10:44:32.322Z,1698.75
2018-10-06T10:45:32.215Z,1783.13
2018-10-06T10:46:32.225Z,1794.38
2018-10-06T10:47:32.233Z,1805.63
2018-10-06T10:48:32.241Z,1811.25
2018-10-06T10:49:32.349Z,1833.75
2018-10-06T10:50:32.276Z,1850.63
2018-10-06T10:51:32.266Z,1687.50
2018-10-06T10:52:32.279Z,1929.38
2018-10-06T10:53:32.286Z,1873.13
2018-10-06T10:54:32.383Z,1839.38
2018-10-06T10:55:32.359Z,1783.13
2018-10-06T10:56:32.514Z,1473.75
2018-10-06T10:57:32.384Z,1755.00
2018-10-06T10:58:32.330Z,1867.50
2018-10-06T10:59:32.463Z,1901.25
2018-10-06T11:00:32.608Z,1935.00
2018-10-06T11:01:32.359Z,1968.75
2018-10-06T11:02:32.367Z,1293.75
2018-10-06T11:03:32.378Z,1912.50
2018-10-06T11:04:32.405Z,1929.38
2018-10-06T11:05:32.393Z,1918.13
2018-10-06T11:07:32.413Z,1878.75
2018-10-06T11:08:32.426Z,1777.50
2018-10-06T11:09:32.427Z,1771.88
2018-10-06T11:10:32.437Z,1721.25
2018-10-06T11:11:32.445Z,1642.50
2018-10-06T11:12:32.452Z,1395.00
2018-10-06T11:13:32.662Z,1361.25
2018-10-06T11:14:32.674Z,1873.13
2018-10-06T11:15:32.480Z,1901.25
2018-10-06T11:16:32.484Z,1873.13
2018-10-06T11:17:32.492Z,1648.13
2018-10-06T11:18:32.498Z,1608.75
2018-10-06T11:19:32.505Z,1608.75
2018-10-06T11:20:32.714Z,1614.38
2018-10-06T11:21:32.522Z,1676.25
2018-10-06T11:22:32.526Z,1794.38
2018-10-06T11:23:32.540Z,1243.13
2018-10-06T11:24:32.542Z,1659.38
2018-10-06T11:25:32.552Z,1625.63
2018-10-06T11:26:32.557Z,1603.13
2018-10-06T11:27:32.563Z,1546.88
2018-10-06T11:28:32.568Z,1524.38
2018-10-06T11:29:32.575Z,1631.25
2018-10-06T11:30:32.583Z,1732.50
2018-10-06T11:31:32.588Z,1676.25
2018-10-06T11:32:32.596Z,1597.50
2018-10-06T11:33:32.602Z,1496.25
2018-10-06T11:34:32.609Z,1535.63
2018-10-06T11:35:32.618Z,1552.50
2018-10-06T11:36:32.622Z,1591.88
2018-10-06T11:37:32.660Z,1552.50
2018-10-06T11:38:32.632Z,1558.13
2018-10-06T11:39:32.642Z,1541.25
2018-10-06T11:40:32.649Z,1535.63
2018-10-06T11:41:32.652Z,1597.50
2018-10-06T11:42:32.657Z,1642.50
2018-10-06T11:43:32.665Z,1659.38
2018-10-06T11:44:32.670Z,1704.38
2018-10-06T11:45:32.674Z,1710.00
2018-10-06T11:46:32.683Z,1698.75
2018-10-06T11:47:32.686Z,1681.88
2018-10-06T11:48:32.695Z,1676.25
2018-10-06T11:49:32.698Z,1597.50
2018-10-06T11:50:32.709Z,1541.25
2018-10-06T11:51:32.708Z,1575.00
2018-10-06T11:52:32.719Z,1541.25
2018-10-06T11:53:32.722Z,1507.50
2018-10-06T11:54:32.725Z,1524.38
2018-10-06T11:55:32.731Z,1541.25
2018-10-06T11:56:32.737Z,1524.38
2018-10-06T11:57:32.744Z,1546.88
2018-10-06T11:58:32.748Z,1563.75
2018-10-06T11:59:32.760Z,1541.25
2018-10-06T12:00:32.799Z,1524.38
2018-10-06T12:01:32.764Z,1575.00
2018-10-06T12:02:32.768Z,1552.50
2018-10-06T12:03:32.773Z,1558.13
2018-10-06T12:04:32.779Z,1423.13
2018-10-06T12:05:32.786Z,1456.88
2018-10-06T12:06:32.788Z,1473.75
2018-10-06T12:07:32.794Z,1507.50
2018-10-06T12:08:32.799Z,1575.00
2018-10-06T12:09:32.804Z,1614.38
2018-10-06T12:10:32.808Z,1580.63
2018-10-06T12:11:32.813Z,1518.75
2018-10-06T12:12:32.819Z,1400.63
2018-10-06T12:13:32.842Z,1248.75
2018-10-06T12:14:32.831Z,1378.13
2018-10-06T12:15:32.834Z,1411.88
2018-10-06T12:17:32.947Z,1456.88
2018-10-06T12:18:32.852Z,1490.63
2018-10-06T12:19:32.855Z,1473.75
2018-10-06T12:20:32.914Z,1473.75
2018-10-06T12:21:32.871Z,1395.00
2018-10-06T12:22:33.074Z,1203.75
2018-10-06T12:23:32.879Z,939.38
2018-10-06T12:24:32.883Z,731.25
2018-10-06T12:25:32.886Z,675.00
2018-10-06T12:26:33.095Z,669.38
2018-10-06T12:27:32.900Z,652.50
2018-10-06T12:28:32.904Z,635.63
2018-10-06T12:29:32.907Z,652.50
2018-10-06T12:30:32.911Z,641.25
2018-10-06T12:31:32.918Z,635.63
2018-10-06T12:32:32.921Z,635.63
2018-10-06T12:33:32.927Z,641.25
2018-10-06T12:34:32.985Z,630.00
2018-10-06T12:35:32.996Z,641.25
2018-10-06T12:36:32.944Z,618.75
2018-10-06T12:37:32.949Z,618.75
2018-10-06T12:38:32.950Z,607.50
2018-10-06T12:39:32.960Z,607.50
2018-10-06T12:40:32.959Z,607.50
2018-10-06T12:41:32.967Z,613.13
2018-10-06T12:42:32.969Z,630.00
2018-10-06T12:43:32.973Z,658.13
2018-10-06T12:44:32.980Z,815.63
2018-10-06T12:45:32.986Z,1006.88
2018-10-06T12:46:32.991Z,1113.75